sensor_id;sensor_type;location;lat;lon;timestamp;pressure;altitude;pressure_sealevel;temperature;humidity
11936;BME280;6027;48.576;9.180;2024-03-17T00:02:20;97573.66;;;8.04;100.00
11936;BME280;6027;48.576;9.180;2024-03-17T00:04:45;97572.28;;;8.00;100.00
11936;BME280;6027;48.576;9.180;2024-03-17T00:07:12;97565.09;;;7.92;100.00
11936;BME280;6027;48.576;9.180;2024-03-17T00:09:38;97564.13;;;7.93;100.00
11936;BME280;6027;48.576;9.180;2024-03-17T00:12:04;97558.50;;;7.88;100.00
11936;BME280;6027;48.576;9.180;2024-03-17T00:14:29;97560.66;;;7.92;100.00
11936;BME280;6027;48.576;9.180;2024-03-17T00:16:55;97560.94;;;7.89;100.00
11936;BME280;6027;48.576;9.180;2024-03-17T00:19:20;97564.66;;;7.96;100.00
11936;BME280;6027;48.576;9.180;2024-03-17T00:21:49;97572.34;;;7.62;100.00
11936;BME280;6027;48.576;9.180;2024-03-17T00:24:19;97565.53;;;7.33;100.00
11936;BME280;6027;48.576;9.180;2024-03-17T00:26:47;97572.88;;;7.39;100.00
11936;BME280;6027;48.576;9.180;2024-03-17T00:29:14;97573.41;;;7.42;100.00
11936;BME280;6027;48.576;9.180;2024-03-17T00:31:40;97561.34;;;7.49;100.00
11936;BME280;6027;48.576;9.180;2024-03-17T00:34:06;97550.97;;;7.38;100.00
11936;BME280;6027;48.576;9.180;2024-03-17T00:36:31;97552.63;;;7.39;100.00
11936;BME280;6027;48.576;9.180;2024-03-17T00:38:56;97562.88;;;7.42;100.00
11936;BME280;6027;48.576;9.180;2024-03-17T00:41:22;97561.09;;;7.33;100.00
11936;BME280;6027;48.576;9.180;2024-03-17T00:43:51;97556.09;;;7.40;100.00
11936;BME280;6027;48.576;9.180;2024-03-17T00:46:19;97559.41;;;7.42;100.00
11936;BME280;6027;48.576;9.180;2024-03-17T00:48:49;97552.06;;;7.45;100.00
11936;BME280;6027;48.576;9.180;2024-03-17T00:51:15;97554.16;;;7.42;100.00
11936;BME280;6027;48.576;9.180;2024-03-17T00:53:41;97547.38;;;7.39;100.00
11936;BME280;6027;48.576;9.180;2024-03-17T00:56:07;97547.66;;;7.36;100.00
11936;BME280;6027;48.576;9.180;2024-03-17T00:58:32;97549.22;;;7.29;100.00
11936;BME280;6027;48.576;9.180;2024-03-17T01:00:58;97545.28;;;7.06;100.00
11936;BME280;6027;48.576;9.180;2024-03-17T01:03:23;97542.50;;;7.07;100.00
11936;BME280;6027;48.576;9.180;2024-03-17T01:05:49;97544.13;;;7.18;100.00
11936;BME280;6027;48.576;9.180;2024-03-17T01:08:18;97541.78;;;7.15;100.00
11936;BME280;6027;48.576;9.180;2024-03-17T01:10:45;97541.78;;;7.15;100.00
11936;BME280;6027;48.576;9.180;2024-03-17T01:13:11;97540.56;;;7.09;100.00
11936;BME280;6027;48.576;9.180;2024-03-17T01:15:37;97540.03;;;7.06;100.00
11936;BME280;6027;48.576;9.180;2024-03-17T01:18:04;97540.88;;;6.97;100.00
11936;BME280;6027;48.576;9.180;2024-03-17T01:20:31;97545.84;;;7.00;100.00
11936;BME280;6027;48.576;9.180;2024-03-17T01:22:56;97541.69;;;7.07;100.00
11936;BME280;6027;48.576;9.180;2024-03-17T01:25:22;97545.34;;;6.86;100.00
11936;BME280;6027;48.576;9.180;2024-03-17T01:27:47;97535.38;;;6.80;100.00
11936;BME280;6027;48.576;9.180;2024-03-17T01:30:12;97532.59;;;6.91;100.00
11936;BME280;6027;48.576;9.180;2024-03-17T01:32:38;97532.13;;;6.96;100.00
11936;BME280;6027;48.576;9.180;2024-03-17T01:35:05;97526.63;;;6.89;100.00
11936;BME280;6027;48.576;9.180;2024-03-17T01:37:31;97528.25;;;7.00;100.00
11936;BME280;6027;48.576;9.180;2024-03-17T01:40:00;97527.81;;;7.05;100.00
11936;BME280;6027;48.576;9.180;2024-03-17T01:42:26;97512.81;;;7.15;100.00
11936;BME280;6027;48.576;9.180;2024-03-17T01:44:51;97501.59;;;7.13;100.00
11936;BME280;6027;48.576;9.180;2024-03-17T01:47:18;97509.88;;;7.18;100.00
11936;BME280;6027;48.576;9.180;2024-03-17T01:49:45;97513.34;;;7.18;100.00
11936;BME280;6027;48.576;9.180;2024-03-17T01:52:13;97511.53;;;7.19;100.00
11936;BME280;6027;48.576;9.180;2024-03-17T01:54:38;97509.13;;;7.08;100.00
11936;BME280;6027;48.576;9.180;2024-03-17T01:57:04;97496.50;;;7.11;100.00
11936;BME280;6027;48.576;9.180;2024-03-17T01:59:30;97494.22;;;7.16;100.00
11936;BME280;6027;48.576;9.180;2024-03-17T02:01:56;97492.53;;;7.25;100.00
11936;BME280;6027;48.576;9.180;2024-03-17T02:04:22;97488.13;;;7.16;100.00
11936;BME280;6027;48.576;9.180;2024-03-17T02:06:48;97484.03;;;7.04;100.00
11936;BME280;6027;48.576;9.180;2024-03-17T02:09:13;97482.25;;;7.04;100.00
11936;BME280;6027;48.576;9.180;2024-03-17T02:11:38;97481.22;;;7.15;100.00
11936;BME280;6027;48.576;9.180;2024-03-17T02:14:04;97479.94;;;7.19;100.00
11936;BME280;6027;48.576;9.180;2024-03-17T02:16:31;97474.00;;;7.17;100.00
11936;BME280;6027;48.576;9.180;2024-03-17T02:18:57;97468.59;;;7.18;100.00
11936;BME280;6027;48.576;9.180;2024-03-17T02:21:24;97478.56;;;6.87;100.00
11936;BME280;6027;48.576;9.180;2024-03-17T02:23:54;97474.44;;;6.75;100.00
11936;BME280;6027;48.576;9.180;2024-03-17T02:26:19;97477.19;;;6.83;100.00
11936;BME280;6027;48.576;9.180;2024-03-17T02:28:46;97465.81;;;6.92;100.00
11936;BME280;6027;48.576;9.180;2024-03-17T02:31:13;97468.25;;;7.04;100.00
11936;BME280;6027;48.576;9.180;2024-03-17T02:33:40;97461.47;;;7.01;100.00
11936;BME280;6027;48.576;9.180;2024-03-17T02:36:06;97462.00;;;7.05;100.00
11936;BME280;6027;48.576;9.180;2024-03-17T02:38:36;97466.94;;;6.90;100.00
11936;BME280;6027;48.576;9.180;2024-03-17T02:41:20;97456.47;;;6.98;100.00
11936;BME280;6027;48.576;9.180;2024-03-17T02:43:47;97462.00;;;7.05;100.00
11936;BME280;6027;48.576;9.180;2024-03-17T02:46:17;97464.22;;;7.09;100.00
11936;BME280;6027;48.576;9.180;2024-03-17T02:48:45;97459.31;;;7.14;100.00
11936;BME280;6027;48.576;9.180;2024-03-17T02:51:18;97449.31;;;7.18;100.00
11936;BME280;6027;48.576;9.180;2024-03-17T02:53:45;97450.69;;;7.22;100.00
11936;BME280;6027;48.576;9.180;2024-03-17T02:56:12;97449.72;;;7.23;100.00
11936;BME280;6027;48.576;9.180;2024-03-17T02:58:39;97450.09;;;7.28;100.00
11936;BME280;6027;48.576;9.180;2024-03-17T03:01:05;97448.66;;;7.34;100.00
11936;BME280;6027;48.576;9.180;2024-03-17T03:03:32;97448.53;;;7.35;100.00
11936;BME280;6027;48.576;9.180;2024-03-17T03:05:58;97451.44;;;7.32;100.00
11936;BME280;6027;48.576;9.180;2024-03-17T03:08:26;97444.00;;;7.27;100.00
11936;BME280;6027;48.576;9.180;2024-03-17T03:10:51;97458.22;;;7.35;100.00
11936;BME280;6027;48.576;9.180;2024-03-17T03:13:17;97449.81;;;7.31;100.00
11936;BME280;6027;48.576;9.180;2024-03-17T03:15:43;97442.06;;;7.30;100.00
11936;BME280;6027;48.576;9.180;2024-03-17T03:18:09;97446.72;;;7.36;100.00
11936;BME280;6027;48.576;9.180;2024-03-17T03:20:34;97448.91;;;7.40;100.00
11936;BME280;6027;48.576;9.180;2024-03-17T03:23:01;97445.34;;;7.32;100.00
11936;BME280;6027;48.576;9.180;2024-03-17T03:25:27;97451.22;;;7.25;100.00
11936;BME280;6027;48.576;9.180;2024-03-17T03:27:53;97449.66;;;7.33;100.00
11936;BME280;6027;48.576;9.180;2024-03-17T03:30:21;97446.19;;;7.32;100.00
11936;BME280;6027;48.576;9.180;2024-03-17T03:32:47;97440.44;;;7.19;100.00
11936;BME280;6027;48.576;9.180;2024-03-17T03:35:13;97440.72;;;7.16;100.00
11936;BME280;6027;48.576;9.180;2024-03-17T03:37:40;97449.31;;;7.18;100.00
11936;BME280;6027;48.576;9.180;2024-03-17T03:40:07;97442.66;;;7.23;100.00
11936;BME280;6027;48.576;9.180;2024-03-17T03:42:42;97439.19;;;7.23;100.00
11936;BME280;6027;48.576;9.180;2024-03-17T03:45:09;97442.50;;;7.25;100.00
11936;BME280;6027;48.576;9.180;2024-03-17T03:47:38;97439.47;;;7.20;100.00
11936;BME280;6027;48.576;9.180;2024-03-17T03:50:03;97436.59;;;7.13;100.00
11936;BME280;6027;48.576;9.180;2024-03-17T03:52:30;97443.22;;;7.17;100.00
11936;BME280;6027;48.576;9.180;2024-03-17T03:54:55;97445.81;;;7.27;100.00
11936;BME280;6027;48.576;9.180;2024-03-17T03:57:21;97446.78;;;7.26;100.00
11936;BME280;6027;48.576;9.180;2024-03-17T03:59:46;97440.44;;;7.19;100.00
11936;BME280;6027;48.576;9.180;2024-03-17T04:02:12;97440.16;;;7.22;100.00
11936;BME280;6027;48.576;9.180;2024-03-17T04:04:37;97437.34;;;7.06;100.00
11936;BME280;6027;48.576;9.180;2024-03-17T04:07:03;97443.50;;;7.14;100.00
11936;BME280;6027;48.576;9.180;2024-03-17T04:09:28;97442.69;;;7.14;100.00
11936;BME280;6027;48.576;9.180;2024-03-17T04:11:54;97433.81;;;7.15;100.00
11936;BME280;6027;48.576;9.180;2024-03-17T04:14:19;97438.38;;;7.13;100.00
11936;BME280;6027;48.576;9.180;2024-03-17T04:16:45;97441.41;;;7.18;100.00
11936;BME280;6027;48.576;9.180;2024-03-17T04:19:10;97437.53;;;7.22;100.00
11936;BME280;6027;48.576;9.180;2024-03-17T04:21:36;97434.16;;;7.30;100.00
11936;BME280;6027;48.576;9.180;2024-03-17T04:24:01;97428.19;;;7.10;100.00
11936;BME280;6027;48.576;9.180;2024-03-17T04:26:27;97437.97;;;7.17;100.00
11936;BME280;6027;48.576;9.180;2024-03-17T04:28:53;97430.75;;;7.19;100.00
11936;BME280;6027;48.576;9.180;2024-03-17T04:31:18;97434.22;;;7.20;100.00
11936;BME280;6027;48.576;9.180;2024-03-17T04:33:43;97441.66;;;7.24;100.00
11936;BME280;6027;48.576;9.180;2024-03-17T04:36:09;97443.03;;;7.28;100.00
11936;BME280;6027;48.576;9.180;2024-03-17T04:38:34;97435.34;;;7.35;100.00
11936;BME280;6027;48.576;9.180;2024-03-17T04:41:00;97432.44;;;7.38;100.00
11936;BME280;6027;48.576;9.180;2024-03-17T04:43:33;97432.03;;;7.33;100.00
11936;BME280;6027;48.576;9.180;2024-03-17T04:46:00;97432.66;;;7.27;100.00
11936;BME280;6027;48.576;9.180;2024-03-17T04:48:26;97434.13;;;7.12;100.00
11936;BME280;6027;48.576;9.180;2024-03-17T04:50:52;97443.75;;;7.21;100.00
11936;BME280;6027;48.576;9.180;2024-03-17T04:53:17;97438.34;;;7.22;100.00
11936;BME280;6027;48.576;9.180;2024-03-17T04:55:43;97441.97;;;7.21;100.00
11936;BME280;6027;48.576;9.180;2024-03-17T04:58:09;97440.09;;;7.32;100.00
11936;BME280;6027;48.576;9.180;2024-03-17T05:00:34;97427.84;;;7.40;100.00
11936;BME280;6027;48.576;9.180;2024-03-17T05:02:59;97428.28;;;7.36;100.00
11936;BME280;6027;48.576;9.180;2024-03-17T05:05:25;97427.16;;;7.38;100.00
11936;BME280;6027;48.576;9.180;2024-03-17T05:07:50;97430.34;;;7.42;100.00
11936;BME280;6027;48.576;9.180;2024-03-17T05:10:16;97433.66;;;7.44;100.00
11936;BME280;6027;48.576;9.180;2024-03-17T05:12:41;97437.66;;;7.48;100.00
11936;BME280;6027;48.576;9.180;2024-03-17T05:15:07;97432.22;;;7.49;100.00
11936;BME280;6027;48.576;9.180;2024-03-17T05:17:33;97434.41;;;7.54;100.00
11936;BME280;6027;48.576;9.180;2024-03-17T05:19:58;97434.47;;;7.44;100.00
11936;BME280;6027;48.576;9.180;2024-03-17T05:22:23;97438.13;;;7.34;100.00
11936;BME280;6027;48.576;9.180;2024-03-17T05:24:49;97446.56;;;7.37;100.00
11936;BME280;6027;48.576;9.180;2024-03-17T05:27:14;97440.91;;;7.32;100.00
11936;BME280;6027;48.576;9.180;2024-03-17T05:29:40;97447.97;;;7.32;100.00
11936;BME280;6027;48.576;9.180;2024-03-17T05:32:05;97452.38;;;7.41;100.00
11936;BME280;6027;48.576;9.180;2024-03-17T05:34:31;97436.44;;;7.42;100.00
11936;BME280;6027;48.576;9.180;2024-03-17T05:36:58;97441.94;;;7.49;100.00
11936;BME280;6027;48.576;9.180;2024-03-17T05:39:23;97437.94;;;7.45;100.00
11936;BME280;6027;48.576;9.180;2024-03-17T05:41:49;97437.19;;;7.52;100.00
11936;BME280;6027;48.576;9.180;2024-03-17T05:44:15;97439.81;;;7.52;100.00
11936;BME280;6027;48.576;9.180;2024-03-17T05:46:40;97442.00;;;7.57;100.00
11936;BME280;6027;48.576;9.180;2024-03-17T05:49:07;97444.72;;;7.47;100.00
11936;BME280;6027;48.576;9.180;2024-03-17T05:51:32;97441.31;;;7.37;100.00
11936;BME280;6027;48.576;9.180;2024-03-17T05:53:58;97439.75;;;7.44;100.00
11936;BME280;6027;48.576;9.180;2024-03-17T05:56:23;97442.09;;;7.47;100.00
11936;BME280;6027;48.576;9.180;2024-03-17T05:58:49;97436.97;;;7.46;100.00
11936;BME280;6027;48.576;9.180;2024-03-17T06:01:14;97445.63;;;7.56;100.00
11936;BME280;6027;48.576;9.180;2024-03-17T06:03:40;97440.19;;;7.57;100.00
11936;BME280;6027;48.576;9.180;2024-03-17T06:06:06;97439.59;;;7.46;100.00
11936;BME280;6027;48.576;9.180;2024-03-17T06:08:36;97436.81;;;7.47;100.00
11936;BME280;6027;48.576;9.180;2024-03-17T06:11:02;97447.22;;;7.49;100.00
11936;BME280;6027;48.576;9.180;2024-03-17T06:13:28;97439.97;;;7.51;100.00
11936;BME280;6027;48.576;9.180;2024-03-17T06:15:53;97442.44;;;7.52;100.00
11936;BME280;6027;48.576;9.180;2024-03-17T06:18:19;97445.47;;;7.57;100.00
11936;BME280;6027;48.576;9.180;2024-03-17T06:20:45;97445.91;;;7.53;100.00
11936;BME280;6027;48.576;9.180;2024-03-17T06:23:12;97440.72;;;7.43;100.00
11936;BME280;6027;48.576;9.180;2024-03-17T06:25:45;97433.50;;;7.45;100.00
11936;BME280;6027;48.576;9.180;2024-03-17T06:28:13;97440.28;;;7.48;100.00
11936;BME280;6027;48.576;9.180;2024-03-17T06:30:46;97441.47;;;7.53;100.00
11936;BME280;6027;48.576;9.180;2024-03-17T06:33:19;97442.44;;;7.52;100.00
11936;BME280;6027;48.576;9.180;2024-03-17T06:35:44;97445.56;;;7.48;100.00
11936;BME280;6027;48.576;9.180;2024-03-17T06:38:10;97443.53;;;7.59;100.00
11936;BME280;6027;48.576;9.180;2024-03-17T06:40:37;97448.69;;;7.51;100.00
11936;BME280;6027;48.576;9.180;2024-03-17T06:43:02;97453.53;;;7.56;100.00
11936;BME280;6027;48.576;9.180;2024-03-17T06:45:28;97435.03;;;7.66;100.00
11936;BME280;6027;48.576;9.180;2024-03-17T06:47:53;97443.47;;;7.69;100.00
11936;BME280;6027;48.576;9.180;2024-03-17T06:50:20;97440.00;;;7.69;100.00
11936;BME280;6027;48.576;9.180;2024-03-17T06:52:46;97432.44;;;7.74;100.00
11936;BME280;6027;48.576;9.180;2024-03-17T06:55:12;97429.38;;;7.78;100.00
11936;BME280;6027;48.576;9.180;2024-03-17T06:57:38;97436.84;;;7.83;100.00
11936;BME280;6027;48.576;9.180;2024-03-17T07:00:09;97434.41;;;7.89;100.00
11936;BME280;6027;48.576;9.180;2024-03-17T07:02:40;97436.88;;;7.91;100.00
11936;BME280;6027;48.576;9.180;2024-03-17T07:05:07;97432.97;;;7.95;100.00
11936;BME280;6027;48.576;9.180;2024-03-17T07:07:33;97431.03;;;7.79;100.00
11936;BME280;6027;48.576;9.180;2024-03-17T07:09:58;97436.88;;;7.91;100.00
11936;BME280;6027;48.576;9.180;2024-03-17T07:12:23;97439.53;;;7.91;100.00
11936;BME280;6027;48.576;9.180;2024-03-17T07:14:52;97440.34;;;7.74;100.00
11936;BME280;6027;48.576;9.180;2024-03-17T07:17:17;97434.53;;;7.70;100.00
11936;BME280;6027;48.576;9.180;2024-03-17T07:19:43;97431.31;;;7.76;100.00
11936;BME280;6027;48.576;9.180;2024-03-17T07:22:08;97428.28;;;7.89;100.00
11936;BME280;6027;48.576;9.180;2024-03-17T07:24:34;97430.94;;;7.89;100.00
11936;BME280;6027;48.576;9.180;2024-03-17T07:26:59;97426.13;;;8.02;100.00
11936;BME280;6027;48.576;9.180;2024-03-17T07:29:24;97427.78;;;8.03;100.00
11936;BME280;6027;48.576;9.180;2024-03-17T07:31:50;97426.84;;;8.12;100.00
11936;BME280;6027;48.576;9.180;2024-03-17T07:34:15;97425.63;;;8.24;100.00
11936;BME280;6027;48.576;9.180;2024-03-17T07:36:41;97429.28;;;8.31;100.00
11936;BME280;6027;48.576;9.180;2024-03-17T07:39:06;97427.06;;;8.37;100.00
11936;BME280;6027;48.576;9.180;2024-03-17T07:41:34;97433.00;;;8.39;100.00
11936;BME280;6027;48.576;9.180;2024-03-17T07:44:00;97428.72;;;8.38;100.00
11936;BME280;6027;48.576;9.180;2024-03-17T07:46:25;97427.22;;;8.35;100.00
11936;BME280;6027;48.576;9.180;2024-03-17T07:48:51;97433.47;;;8.34;100.00
11936;BME280;6027;48.576;9.180;2024-03-17T07:51:16;97431.91;;;8.49;100.00
11936;BME280;6027;48.576;9.180;2024-03-17T07:53:43;97424.47;;;8.45;100.00
11936;BME280;6027;48.576;9.180;2024-03-17T07:56:13;97421.78;;;8.37;100.00
11936;BME280;6027;48.576;9.180;2024-03-17T07:58:41;97423.91;;;8.33;100.00
11936;BME280;6027;48.576;9.180;2024-03-17T08:03:35;97421.25;;;8.59;100.00
11936;BME280;6027;48.576;9.180;2024-03-17T08:06:03;97413.22;;;8.69;100.00
11936;BME280;6027;48.576;9.180;2024-03-17T08:08:29;97423.06;;;8.84;100.00
11936;BME280;6027;48.576;9.180;2024-03-17T08:10:54;97418.78;;;8.91;100.00
11936;BME280;6027;48.576;9.180;2024-03-17T08:13:21;97413.88;;;9.05;100.00
11936;BME280;6027;48.576;9.180;2024-03-17T08:15:55;97413.91;;;9.13;100.00
11936;BME280;6027;48.576;9.180;2024-03-17T08:18:21;97420.22;;;9.28;100.00
11936;BME280;6027;48.576;9.180;2024-03-17T08:20:46;97409.34;;;9.31;100.00
11936;BME280;6027;48.576;9.180;2024-03-17T08:23:12;97413.50;;;9.33;100.00
11936;BME280;6027;48.576;9.180;2024-03-17T08:25:38;97416.81;;;9.44;100.00
11936;BME280;6027;48.576;9.180;2024-03-17T08:28:04;97405.44;;;9.51;100.00
11936;BME280;6027;48.576;9.180;2024-03-17T08:30:30;97419.94;;;9.47;100.00
11936;BME280;6027;48.576;9.180;2024-03-17T08:32:56;97417.81;;;9.51;100.00
11936;BME280;6027;48.576;9.180;2024-03-17T08:35:22;97413.88;;;9.55;100.00
11936;BME280;6027;48.576;9.180;2024-03-17T08:37:47;97419.34;;;9.69;100.00
11936;BME280;6027;48.576;9.180;2024-03-17T08:40:13;97413.72;;;9.73;100.00
11936;BME280;6027;48.576;9.180;2024-03-17T08:42:39;97404.47;;;9.85;100.00
11936;BME280;6027;48.576;9.180;2024-03-17T08:45:06;97406.13;;;10.02;100.00
11936;BME280;6027;48.576;9.180;2024-03-17T08:47:32;97407.13;;;10.09;100.00
11936;BME280;6027;48.576;9.180;2024-03-17T08:49:57;97406.47;;;10.15;100.00
11936;BME280;6027;48.576;9.180;2024-03-17T08:52:23;97402.69;;;10.26;100.00
11936;BME280;6027;48.576;9.180;2024-03-17T08:54:49;97399.03;;;10.35;100.00
11936;BME280;6027;48.576;9.180;2024-03-17T08:57:17;97397.19;;;10.44;100.00
11936;BME280;6027;48.576;9.180;2024-03-17T08:59:46;97403.47;;;10.43;100.00
11936;BME280;6027;48.576;9.180;2024-03-17T09:02:13;97395.88;;;10.56;100.00
11936;BME280;6027;48.576;9.180;2024-03-17T09:04:41;97389.19;;;10.68;100.00
11936;BME280;6027;48.576;9.180;2024-03-17T09:07:07;97387.22;;;10.70;100.00
11936;BME280;6027;48.576;9.180;2024-03-17T09:09:33;97375.78;;;10.69;100.00
11936;BME280;6027;48.576;9.180;2024-03-17T09:11:58;97384.72;;;10.77;100.00
11936;BME280;6027;48.576;9.180;2024-03-17T09:14:24;97396.31;;;10.76;100.00
11936;BME280;6027;48.576;9.180;2024-03-17T09:16:49;97393.59;;;10.84;100.00
11936;BME280;6027;48.576;9.180;2024-03-17T09:19:15;97397.72;;;10.94;100.00
11936;BME280;6027;48.576;9.180;2024-03-17T09:21:40;97396.19;;;11.00;100.00
11936;BME280;6027;48.576;9.180;2024-03-17T09:24:06;97393.72;;;10.98;100.00
11936;BME280;6027;48.576;9.180;2024-03-17T09:26:35;97381.75;;;11.11;100.00
11936;BME280;6027;48.576;9.180;2024-03-17T09:29:01;97383.69;;;11.17;100.00
11936;BME280;6027;48.576;9.180;2024-03-17T09:31:26;97390.03;;;11.16;100.00
11936;BME280;6027;48.576;9.180;2024-03-17T09:33:52;97384.75;;;11.07;100.00
11936;BME280;6027;48.576;9.180;2024-03-17T09:36:18;97380.78;;;11.03;100.00
11936;BME280;6027;48.576;9.180;2024-03-17T09:38:44;97379.41;;;11.16;100.00
11936;BME280;6027;48.576;9.180;2024-03-17T09:41:24;97385.34;;;11.18;100.00
11936;BME280;6027;48.576;9.180;2024-03-17T09:43:54;97381.66;;;11.27;100.00
11936;BME280;6027;48.576;9.180;2024-03-17T09:46:22;97390.28;;;11.29;100.00
11936;BME280;6027;48.576;9.180;2024-03-17T09:48:48;97388.53;;;11.44;100.00
11936;BME280;6027;48.576;9.180;2024-03-17T09:51:24;97380.34;;;11.23;100.00
11936;BME280;6027;48.576;9.180;2024-03-17T09:53:50;97369.09;;;11.21;100.00
11936;BME280;6027;48.576;9.180;2024-03-17T09:56:17;97385.56;;;11.39;100.00
11936;BME280;6027;48.576;9.180;2024-03-17T09:58:45;97388.56;;;11.36;100.00
11936;BME280;6027;48.576;9.180;2024-03-17T10:01:11;97389.03;;;11.39;100.00
11936;BME280;6027;48.576;9.180;2024-03-17T10:03:49;97381.31;;;11.30;100.00
11936;BME280;6027;48.576;9.180;2024-03-17T10:06:25;97381.19;;;11.23;100.00
11936;BME280;6027;48.576;9.180;2024-03-17T10:09:00;97377.59;;;11.39;100.00
11936;BME280;6027;48.576;9.180;2024-03-17T10:11:41;97390.34;;;11.43;100.00
11936;BME280;6027;48.576;9.180;2024-03-17T10:14:08;97383.88;;;11.46;100.00
11936;BME280;6027;48.576;9.180;2024-03-17T10:16:35;97386.88;;;11.43;100.00
11936;BME280;6027;48.576;9.180;2024-03-17T10:19:23;97386.66;;;11.53;100.00
11936;BME280;6027;48.576;9.180;2024-03-17T10:21:50;97373.47;;;11.67;100.00
11936;BME280;6027;48.576;9.180;2024-03-17T10:24:24;97380.53;;;11.98;100.00
11936;BME280;6027;48.576;9.180;2024-03-17T10:26:54;97374.88;;;12.01;100.00
11936;BME280;6027;48.576;9.180;2024-03-17T10:29:28;97371.03;;;12.03;100.00
11936;BME280;6027;48.576;9.180;2024-03-17T10:32:12;97370.94;;;11.97;100.00
11936;BME280;6027;48.576;9.180;2024-03-17T10:34:39;97374.66;;;12.25;100.00
11936;BME280;6027;48.576;9.180;2024-03-17T10:39:37;97374.47;;;12.12;100.00
11936;BME280;6027;48.576;9.180;2024-03-17T10:42:04;97377.47;;;12.09;100.00
11936;BME280;6027;48.576;9.180;2024-03-17T10:44:32;97368.50;;;12.10;100.00
11936;BME280;6027;48.576;9.180;2024-03-17T10:46:59;97379.00;;;12.03;98.93
11936;BME280;6027;48.576;9.180;2024-03-17T10:49:33;97373.44;;;12.13;97.50
11936;BME280;6027;48.576;9.180;2024-03-17T10:52:04;97379.31;;;12.08;98.07
11936;BME280;6027;48.576;9.180;2024-03-17T10:54:31;97378.19;;;12.03;98.74
11936;BME280;6027;48.576;9.180;2024-03-17T10:57:09;97372.41;;;11.99;97.24
11936;BME280;6027;48.576;9.180;2024-03-17T10:59:46;97381.31;;;12.06;99.12
11936;BME280;6027;48.576;9.180;2024-03-17T11:02:23;97374.66;;;12.10;91.98
11936;BME280;6027;48.576;9.180;2024-03-17T11:04:58;97372.19;;;12.24;91.32
11936;BME280;6027;48.576;9.180;2024-03-17T11:07:24;97372.56;;;12.35;93.39
11936;BME280;6027;48.576;9.180;2024-03-17T11:09:53;97366.91;;;12.38;87.98
11936;BME280;6027;48.576;9.180;2024-03-17T11:20:33;97355.84;;;12.50;94.79
11936;BME280;6027;48.576;9.180;2024-03-17T11:22:59;97369.31;;;12.48;89.79
11936;BME280;6027;48.576;9.180;2024-03-17T11:27:53;97365.88;;;12.25;89.36
11936;BME280;6027;48.576;9.180;2024-03-17T11:30:54;97360.38;;;12.26;89.86
11936;BME280;6027;48.576;9.180;2024-03-17T11:46:55;97344.09;;;12.59;84.14
11936;BME280;6027;48.576;9.180;2024-03-17T11:51:50;97336.88;;;12.82;79.70
11936;BME280;6027;48.576;9.180;2024-03-17T11:54:20;97335.22;;;12.81;80.91
11936;BME280;6027;48.576;9.180;2024-03-17T11:56:49;97345.84;;;12.81;80.75
11936;BME280;6027;48.576;9.180;2024-03-17T11:59:16;97335.69;;;12.70;75.91
11936;BME280;6027;48.576;9.180;2024-03-17T12:01:48;97340.56;;;12.66;73.43
11936;BME280;6027;48.576;9.180;2024-03-17T12:04:15;97334.78;;;12.63;77.23
11936;BME280;6027;48.576;9.180;2024-03-17T12:06:45;97325.31;;;12.75;78.86
11936;BME280;6027;48.576;9.180;2024-03-17T12:09:18;97319.00;;;12.76;76.28
11936;BME280;6027;48.576;9.180;2024-03-17T12:11:50;97326.88;;;12.84;75.65
11936;BME280;6027;48.576;9.180;2024-03-17T12:14:19;97322.09;;;12.94;78.17
11936;BME280;6027;48.576;9.180;2024-03-17T12:16:49;97317.78;;;12.93;77.22
11936;BME280;6027;48.576;9.180;2024-03-17T12:19:16;97318.72;;;12.86;77.11
11936;BME280;6027;48.576;9.180;2024-03-17T12:21:46;97324.94;;;12.78;74.40
11936;BME280;6027;48.576;9.180;2024-03-17T12:24:20;97324.13;;;12.77;72.31
11936;BME280;6027;48.576;9.180;2024-03-17T12:26:47;97321.50;;;12.63;75.80
11936;BME280;6027;48.576;9.180;2024-03-17T12:29:33;97317.66;;;12.65;78.23
11936;BME280;6027;48.576;9.180;2024-03-17T12:32:05;97314.63;;;12.68;80.39
11936;BME280;6027;48.576;9.180;2024-03-17T12:34:34;97308.56;;;12.74;82.10
11936;BME280;6027;48.576;9.180;2024-03-17T12:37:00;97303.41;;;12.88;80.29
11936;BME280;6027;48.576;9.180;2024-03-17T12:39:33;97296.50;;;12.93;80.06
11936;BME280;6027;48.576;9.180;2024-03-17T12:44:30;97296.63;;;12.85;71.82
11936;BME280;6027;48.576;9.180;2024-03-17T12:46:57;97295.25;;;12.89;77.91
11936;BME280;6027;48.576;9.180;2024-03-17T12:49:22;97282.72;;;12.83;75.29
11936;BME280;6027;48.576;9.180;2024-03-17T12:51:51;97295.34;;;12.81;77.27
11936;BME280;6027;48.576;9.180;2024-03-17T12:54:19;97291.06;;;12.80;73.10
11936;BME280;6027;48.576;9.180;2024-03-17T12:56:45;97279.69;;;12.86;73.16
11936;BME280;6027;48.576;9.180;2024-03-17T12:59:42;97277.59;;;12.82;75.84
11936;BME280;6027;48.576;9.180;2024-03-17T13:02:26;97274.19;;;12.88;74.76
11936;BME280;6027;48.576;9.180;2024-03-17T13:05:15;97273.59;;;12.92;76.21
11936;BME280;6027;48.576;9.180;2024-03-17T13:07:43;97277.66;;;12.88;70.42
11936;BME280;6027;48.576;9.180;2024-03-17T13:10:10;97274.88;;;12.96;69.80
11936;BME280;6027;48.576;9.180;2024-03-17T13:12:36;97274.78;;;13.04;74.86
11936;BME280;6027;48.576;9.180;2024-03-17T13:15:01;97271.72;;;13.22;76.06
11936;BME280;6027;48.576;9.180;2024-03-17T13:17:27;97269.44;;;13.19;75.21
11936;BME280;6027;48.576;9.180;2024-03-17T13:19:54;97265.78;;;13.20;73.38
11936;BME280;6027;48.576;9.180;2024-03-17T13:22:20;97269.25;;;13.21;71.84
11936;BME280;6027;48.576;9.180;2024-03-17T13:24:46;97254.13;;;13.21;68.09
11936;BME280;6027;48.576;9.180;2024-03-17T13:27:12;97257.88;;;13.27;66.18
11936;BME280;6027;48.576;9.180;2024-03-17T13:29:39;97252.97;;;13.30;68.68
11936;BME280;6027;48.576;9.180;2024-03-17T13:32:09;97245.00;;;13.30;70.96
11936;BME280;6027;48.576;9.180;2024-03-17T13:34:35;97250.31;;;13.30;69.35
11936;BME280;6027;48.576;9.180;2024-03-17T13:37:00;97257.06;;;13.26;70.90
11936;BME280;6027;48.576;9.180;2024-03-17T13:39:32;97243.16;;;13.31;69.90
11936;BME280;6027;48.576;9.180;2024-03-17T13:41:59;97249.94;;;13.33;68.09
11936;BME280;6027;48.576;9.180;2024-03-17T13:44:32;97244.81;;;13.32;68.46
11936;BME280;6027;48.576;9.180;2024-03-17T13:46:58;97241.22;;;13.39;69.08